Time;durP1;ratioP1;P1;durP2;ratioP2;P2;SDS_P1;SDS_P2;PMS_P1;PMS_P2;Temp;Humidity;BMP_temperature;BMP_pressure;BME280_temperature;BME280_humidity;BME280_pressure;Samples;Min_cycle;Max_cycle;Signal;HPM_P1;HPM_P2
2020/12/05 00:01:26;;;;;;;23.73;14.40;;;5.00;99.90;;;;;;5068233;28;20198;-73
2020/12/05 00:03:53;;;;;;;25.07;14.90;;;5.10;99.90;;;;;;5078594;28;20245;-74
2020/12/05 00:06:23;;;;;;;21.33;13.47;;;5.10;99.90;;;;;;5074068;28;20205;-74
2020/12/05 00:08:50;;;;;;;25.87;13.87;;;5.10;99.90;;;;;;5070414;28;20215;-74
2020/12/05 00:11:17;;;;;;;23.67;12.93;;;5.10;99.90;;;;;;5075337;28;20233;-73
2020/12/05 00:13:43;;;;;;;26.20;12.50;;;5.20;99.90;;;;;;5073613;28;20236;-71
2020/12/05 00:16:14;;;;;;;23.13;12.50;;;5.20;99.90;;;;;;5071313;28;20662;-74
2020/12/05 00:18:41;;;;;;;20.37;13.03;;;5.20;99.90;;;;;;5075088;28;20788;-74
2020/12/05 00:21:08;;;;;;;20.30;12.90;;;5.20;99.90;;;;;;5075212;28;20209;-73
2020/12/05 00:23:36;;;;;;;21.67;14.37;;;5.20;99.90;;;;;;5074976;28;20247;-74
2020/12/05 00:26:06;;;;;;;21.30;13.53;;;5.30;99.90;;;;;;5078594;28;20642;-74
2020/12/05 00:28:32;;;;;;;20.57;11.90;;;5.30;99.90;;;;;;5073948;28;20267;-73
2020/12/05 00:30:59;;;;;;;22.60;12.70;;;5.30;99.90;;;;;;5075919;28;20681;-73
2020/12/05 00:33:25;;;;;;;19.80;12.43;;;5.40;99.90;;;;;;5084819;28;20648;-73
2020/12/05 00:35:52;;;;;;;20.80;12.83;;;5.40;99.90;;;;;;5079411;28;20654;-74
2020/12/05 00:38:18;;;;;;;20.50;12.97;;;5.40;99.90;;;;;;5074847;28;20618;-73
2020/12/05 00:40:45;;;;;;;19.93;13.03;;;5.40;99.90;;;;;;5081098;28;20316;-74
2020/12/05 00:43:12;;;;;;;21.77;13.47;;;5.40;99.90;;;;;;5074803;28;20742;-74
2020/12/05 00:45:39;;;;;;;21.47;12.70;;;5.40;99.90;;;;;;5075261;28;20201;-74
2020/12/05 00:48:06;;;;;;;22.77;13.43;;;5.40;99.90;;;;;;5072666;28;20292;-72
2020/12/05 00:50:32;;;;;;;24.77;12.50;;;5.40;99.90;;;;;;5073567;28;20204;-74
2020/12/05 00:52:59;;;;;;;19.13;12.23;;;5.40;99.90;;;;;;5074564;28;20615;-74
2020/12/05 00:55:25;;;;;;;20.40;13.47;;;5.40;99.90;;;;;;5080902;28;20201;-73
2020/12/05 00:57:53;;;;;;;22.07;14.67;;;5.40;99.90;;;;;;5074451;28;20227;-74
2020/12/05 01:00:20;;;;;;;23.17;13.77;;;5.40;99.90;;;;;;5075814;28;20209;-74
2020/12/05 01:02:47;;;;;;;20.83;12.10;;;5.40;99.90;;;;;;5074215;28;20266;-74
2020/12/05 01:05:13;;;;;;;20.13;12.23;;;5.30;99.90;;;;;;5075473;28;20266;-73
2020/12/05 01:07:40;;;;;;;23.10;12.13;;;5.40;99.90;;;;;;5073563;28;20224;-73
2020/12/05 01:10:07;;;;;;;21.47;12.03;;;5.30;99.90;;;;;;5075816;28;20254;-73
2020/12/05 01:12:34;;;;;;;19.80;12.50;;;5.30;99.90;;;;;;5075302;28;20221;-73
2020/12/05 01:15:02;;;;;;;18.90;12.27;;;5.30;99.90;;;;;;5075182;28;20210;-74
2020/12/05 01:17:32;;;;;;;20.20;12.80;;;5.40;99.90;;;;;;5075663;28;20263;-74
2020/12/05 01:19:58;;;;;;;20.17;12.53;;;5.30;99.90;;;;;;5075684;28;20732;-73
2020/12/05 01:22:25;;;;;;;20.07;12.10;;;5.30;99.90;;;;;;5073756;28;20220;-73
2020/12/05 01:24:51;;;;;;;22.13;12.60;;;5.30;99.90;;;;;;5073561;28;20209;-74
2020/12/05 01:27:19;;;;;;;20.90;12.13;;;5.30;99.90;;;;;;5072133;28;20639;-72
2020/12/05 01:29:46;;;;;;;20.57;12.33;;;5.30;99.90;;;;;;5076705;28;20263;-73
2020/12/05 01:32:13;;;;;;;21.37;12.67;;;5.40;99.90;;;;;;5080866;28;20255;-73
2020/12/05 01:34:42;;;;;;;19.27;11.93;;;5.40;99.90;;;;;;5078399;28;20205;-73
2020/12/05 01:37:10;;;;;;;19.53;11.77;;;5.40;99.90;;;;;;5079840;28;20327;-72
2020/12/05 01:39:36;;;;;;;20.80;12.10;;;5.40;99.90;;;;;;5079229;28;20271;-73
2020/12/05 01:42:03;;;;;;;18.43;11.90;;;5.50;99.90;;;;;;5083294;28;20208;-72
2020/12/05 01:44:31;;;;;;;19.80;12.00;;;5.50;99.90;;;;;;5079441;28;20237;-72
2020/12/05 01:46:58;;;;;;;18.67;11.27;;;5.50;99.90;;;;;;5078078;28;20251;-72
2020/12/05 01:49:26;;;;;;;20.20;11.80;;;5.50;99.90;;;;;;5075469;28;20252;-73
2020/12/05 01:51:53;;;;;;;18.67;11.63;;;5.50;99.90;;;;;;5075736;28;20213;-73
2020/12/05 01:54:20;;;;;;;18.10;11.50;;;5.40;99.90;;;;;;5080235;28;20539;-73
2020/12/05 01:56:56;;;;;;;19.77;12.63;;;5.40;99.90;;;;;;5082639;28;20202;-73
2020/12/05 01:59:22;;;;;;;18.77;10.63;;;5.40;99.90;;;;;;5083842;28;20726;-72
2020/12/05 02:01:51;;;;;;;22.43;11.70;;;5.40;99.90;;;;;;5080719;28;20255;-72
2020/12/05 02:04:18;;;;;;;17.53;11.43;;;5.40;99.90;;;;;;5076369;28;20285;-72
2020/12/05 02:06:58;;;;;;;19.00;11.40;;;5.40;99.90;;;;;;5076665;28;20201;-72
2020/12/05 02:09:29;;;;;;;18.33;11.43;;;5.30;99.90;;;;;;5076636;28;20263;-72
2020/12/05 02:12:02;;;;;;;18.43;11.17;;;5.40;99.90;;;;;;5075547;28;20312;-72
2020/12/05 02:14:31;;;;;;;16.53;10.57;;;5.40;99.90;;;;;;5073050;28;20224;-71
2020/12/05 02:17:04;;;;;;;19.40;11.87;;;5.40;99.90;;;;;;5083875;28;20295;-72
2020/12/05 02:19:40;;;;;;;17.73;11.20;;;5.40;99.90;;;;;;5073657;28;20680;-71
2020/12/05 02:22:11;;;;;;;20.07;10.33;;;5.40;99.90;;;;;;5091574;28;20240;-72
2020/12/05 02:24:38;;;;;;;20.63;11.60;;;5.40;99.90;;;;;;5076702;28;20295;-71
2020/12/05 02:27:05;;;;;;;18.90;10.73;;;5.40;99.90;;;;;;5078411;28;20209;-72
2020/12/05 02:29:34;;;;;;;17.63;11.17;;;5.40;99.90;;;;;;5076200;28;20198;-72
2020/12/05 02:32:03;;;;;;;19.37;10.87;;;5.40;99.90;;;;;;5087636;28;20254;-72
2020/12/05 02:34:30;;;;;;;17.70;10.53;;;5.40;99.90;;;;;;5071374;28;20654;-71
2020/12/05 02:36:59;;;;;;;19.93;11.30;;;5.40;99.90;;;;;;5085855;28;20237;-71
2020/12/05 02:39:27;;;;;;;20.63;11.27;;;5.40;99.90;;;;;;5077756;28;20292;-72
2020/12/05 02:41:55;;;;;;;16.23;10.47;;;5.40;99.90;;;;;;5081867;28;20210;-71
2020/12/05 02:44:21;;;;;;;17.50;10.80;;;5.40;99.90;;;;;;5075509;28;20237;-71
2020/12/05 02:46:50;;;;;;;18.13;10.73;;;5.40;99.90;;;;;;5075034;28;20263;-71
2020/12/05 02:49:16;;;;;;;19.03;10.20;;;5.40;99.90;;;;;;5077358;28;20212;-70
2020/12/05 02:51:43;;;;;;;14.97;10.23;;;5.40;99.90;;;;;;5083791;28;20232;-71
2020/12/05 02:54:11;;;;;;;18.70;11.57;;;5.40;99.90;;;;;;5072657;28;20197;-72
2020/12/05 02:56:38;;;;;;;15.27;10.30;;;5.40;99.90;;;;;;5077464;28;20198;-71
2020/12/05 02:59:05;;;;;;;17.40;11.10;;;5.50;99.90;;;;;;5075174;28;20263;-71
2020/12/05 03:01:33;;;;;;;16.33;11.07;;;5.40;99.90;;;;;;5086569;28;20205;-71
2020/12/05 03:04:00;;;;;;;17.63;10.70;;;5.50;99.90;;;;;;5083550;28;20608;-71
2020/12/05 03:06:26;;;;;;;15.80;10.23;;;5.50;99.90;;;;;;5067632;28;20205;-71
2020/12/05 03:08:52;;;;;;;19.27;11.83;;;5.50;99.90;;;;;;5074948;28;20206;-71
2020/12/05 03:11:19;;;;;;;18.27;10.87;;;5.50;99.90;;;;;;5083098;28;20314;-72
2020/12/05 03:13:45;;;;;;;16.00;10.70;;;5.50;99.90;;;;;;5086493;28;20239;-71
2020/12/05 03:16:13;;;;;;;16.47;10.37;;;5.50;99.90;;;;;;5082182;28;20630;-71
2020/12/05 03:18:39;;;;;;;16.63;10.50;;;5.50;99.90;;;;;;5076010;28;20225;-71
2020/12/05 03:21:06;;;;;;;19.47;10.30;;;5.60;99.90;;;;;;5080880;28;20244;-72
2020/12/05 03:23:32;;;;;;;16.43;10.40;;;5.60;99.90;;;;;;5082415;28;20236;-71
2020/12/05 03:25:58;;;;;;;17.40;10.97;;;5.60;99.90;;;;;;5081394;28;20228;-71
2020/12/05 03:28:26;;;;;;;14.93;10.07;;;5.60;99.90;;;;;;5075282;28;20201;-72
2020/12/05 03:30:52;;;;;;;18.63;10.60;;;5.60;99.90;;;;;;5079613;28;20209;-72
2020/12/05 03:33:21;;;;;;;14.67;10.23;;;5.60;99.90;;;;;;5083298;28;20216;-73
2020/12/05 03:35:48;;;;;;;17.70;10.53;;;5.60;99.90;;;;;;5081706;28;20215;-72
2020/12/05 03:38:15;;;;;;;17.43;11.37;;;5.60;99.90;;;;;;5075133;28;20320;-72
2020/12/05 03:40:41;;;;;;;18.17;11.10;;;5.60;99.90;;;;;;5081869;28;20717;-71
2020/12/05 03:43:08;;;;;;;20.63;11.10;;;5.60;99.90;;;;;;5073871;28;20205;-72
2020/12/05 03:45:34;;;;;;;19.00;11.50;;;5.60;99.90;;;;;;5074377;28;20292;-71
2020/12/05 03:48:01;;;;;;;16.67;10.43;;;5.70;99.90;;;;;;5073545;28;20241;-72
2020/12/05 03:50:28;;;;;;;16.40;10.27;;;5.70;99.90;;;;;;5074360;28;20202;-71
2020/12/05 03:52:55;;;;;;;16.07;9.93;;;5.70;99.90;;;;;;5074654;28;20237;-72
2020/12/05 03:55:21;;;;;;;16.83;10.70;;;5.70;99.90;;;;;;5071278;28;20629;-72
2020/12/05 03:57:48;;;;;;;17.10;10.57;;;5.70;99.90;;;;;;5074535;28;20621;-72
2020/12/05 04:00:15;;;;;;;15.03;9.83;;;5.70;99.90;;;;;;5073861;28;20275;-72
2020/12/05 04:02:41;;;;;;;15.77;10.67;;;5.70;99.90;;;;;;5074363;28;20252;-72
2020/12/05 04:05:08;;;;;;;18.50;10.70;;;5.70;99.90;;;;;;5074602;28;20220;-72
2020/12/05 04:07:35;;;;;;;17.00;10.27;;;5.70;99.90;;;;;;5078226;28;20720;-72
2020/12/05 04:10:02;;;;;;;17.17;9.97;;;5.80;99.90;;;;;;5062874;28;20233;-72
2020/12/05 04:12:31;;;;;;;15.83;10.20;;;5.80;99.90;;;;;;5072589;28;20677;-73
2020/12/05 04:14:58;;;;;;;15.43;10.03;;;5.80;99.90;;;;;;5073722;28;20576;-71
2020/12/05 04:17:24;;;;;;;15.33;9.93;;;5.80;99.90;;;;;;5069320;28;20237;-70
2020/12/05 04:19:52;;;;;;;17.10;9.97;;;5.80;99.90;;;;;;5073368;28;20743;-71
2020/12/05 04:22:18;;;;;;;15.63;10.10;;;5.80;99.90;;;;;;5074102;28;20213;-72
2020/12/05 04:24:45;;;;;;;13.33;9.97;;;5.80;99.90;;;;;;5075436;28;20576;-71
2020/12/05 04:27:12;;;;;;;15.30;9.70;;;5.80;99.90;;;;;;5078290;28;20209;-71
2020/12/05 04:29:41;;;;;;;16.40;10.67;;;5.90;99.90;;;;;;5082783;28;20197;-71
2020/12/05 04:32:07;;;;;;;17.40;9.80;;;5.90;99.90;;;;;;5072884;28;20209;-71
2020/12/05 04:34:34;;;;;;;18.43;10.10;;;5.90;99.90;;;;;;5086921;28;20253;-71
2020/12/05 04:37:00;;;;;;;13.93;9.90;;;5.80;99.90;;;;;;5073861;28;20284;-72
2020/12/05 04:39:27;;;;;;;14.17;9.80;;;5.90;99.90;;;;;;5073470;28;20286;-71
2020/12/05 04:41:54;;;;;;;17.27;10.57;;;5.90;99.90;;;;;;5069457;28;20720;-70
2020/12/05 04:44:21;;;;;;;14.37;9.87;;;5.90;99.90;;;;;;5080891;28;20226;-71
2020/12/05 04:46:49;;;;;;;18.53;10.37;;;5.90;99.90;;;;;;5074118;28;20233;-71
2020/12/05 04:49:17;;;;;;;14.80;10.07;;;5.90;99.90;;;;;;5074059;28;20209;-72
2020/12/05 04:51:52;;;;;;;17.40;10.77;;;5.90;99.90;;;;;;5072499;28;20233;-72
2020/12/05 04:54:26;;;;;;;15.47;9.60;;;5.90;99.90;;;;;;5078564;28;20236;-73
2020/12/05 04:56:56;;;;;;;16.33;9.77;;;5.90;99.90;;;;;;5069760;28;20549;-71
2020/12/05 04:59:22;;;;;;;17.50;11.37;;;5.90;99.90;;;;;;5074331;28;20219;-72
2020/12/05 05:01:51;;;;;;;14.90;9.67;;;5.90;99.90;;;;;;5073132;28;20241;-73
2020/12/05 05:04:18;;;;;;;16.47;10.40;;;5.80;99.90;;;;;;5077611;28;20576;-72
2020/12/05 05:06:44;;;;;;;16.47;10.50;;;5.90;99.90;;;;;;5083629;28;20205;-72
2020/12/05 05:09:11;;;;;;;21.17;11.03;;;5.90;99.90;;;;;;5079032;28;20265;-71
2020/12/05 05:11:40;;;;;;;15.83;10.90;;;5.80;99.90;;;;;;5089445;28;20274;-72
2020/12/05 05:14:14;;;;;;;18.03;10.70;;;5.80;99.90;;;;;;5087823;28;20299;-72
2020/12/05 05:16:40;;;;;;;16.87;10.70;;;5.80;99.90;;;;;;5080027;28;20207;-72
2020/12/05 05:19:19;;;;;;;16.37;10.60;;;5.80;99.90;;;;;;5077144;28;20260;-71
2020/12/05 05:21:46;;;;;;;18.20;11.03;;;5.80;99.90;;;;;;5081800;28;20564;-73
2020/12/05 05:24:15;;;;;;;16.93;10.97;;;5.80;99.90;;;;;;5071979;28;20262;-73
2020/12/05 05:26:42;;;;;;;16.63;10.70;;;5.80;99.90;;;;;;5077704;28;20281;-72
2020/12/05 05:29:24;;;;;;;15.73;11.00;;;5.80;99.90;;;;;;5081688;28;20236;-72
2020/12/05 05:31:55;;;;;;;18.47;10.93;;;5.80;99.90;;;;;;5089199;28;20212;-72
2020/12/05 05:34:23;;;;;;;15.83;10.03;;;5.80;99.90;;;;;;5080415;28;20546;-71
2020/12/05 05:36:50;;;;;;;17.03;11.23;;;5.80;99.90;;;;;;5089240;28;20236;-71
2020/12/05 05:39:19;;;;;;;15.67;10.17;;;5.80;99.90;;;;;;5083837;28;20221;-71
2020/12/05 05:41:50;;;;;;;17.03;11.07;;;5.90;99.90;;;;;;5076905;28;20201;-71
2020/12/05 05:44:18;;;;;;;17.13;11.20;;;5.90;99.90;;;;;;5082391;28;20202;-72
2020/12/05 05:46:48;;;;;;;17.03;10.30;;;5.90;99.90;;;;;;5077630;28;20292;-72
2020/12/05 05:49:24;;;;;;;16.53;10.07;;;5.90;99.90;;;;;;5077690;28;20286;-72
2020/12/05 05:51:52;;;;;;;19.43;11.70;;;5.90;99.90;;;;;;5076678;28;20248;-73
2020/12/05 05:54:22;;;;;;;17.10;11.07;;;5.90;99.90;;;;;;5081234;28;20233;-72
2020/12/05 05:56:56;;;;;;;17.73;10.37;;;5.90;99.90;;;;;;5072503;28;20205;-72
2020/12/05 05:59:23;;;;;;;20.37;11.57;;;5.90;99.90;;;;;;5077078;28;20825;-71
2020/12/05 06:01:52;;;;;;;16.97;10.83;;;5.90;99.90;;;;;;5075600;28;20266;-72
2020/12/05 06:04:24;;;;;;;16.00;10.47;;;5.90;99.90;;;;;;5076266;28;20202;-72
2020/12/05 06:06:51;;;;;;;17.23;10.97;;;5.90;99.90;;;;;;5080043;28;20258;-71
2020/12/05 06:09:23;;;;;;;16.57;11.27;;;5.90;99.90;;;;;;5064856;28;20202;-72
2020/12/05 06:11:53;;;;;;;16.10;10.53;;;5.90;99.90;;;;;;5076560;28;20641;-72
2020/12/05 06:14:21;;;;;;;17.67;11.13;;;5.90;99.90;;;;;;5075808;28;20202;-71
2020/12/05 06:16:51;;;;;;;18.17;10.87;;;6.00;99.90;;;;;;5068535;28;20201;-72
2020/12/05 06:19:19;;;;;;;15.50;10.97;;;6.00;99.90;;;;;;5073636;28;20568;-70
2020/12/05 06:21:50;;;;;;;16.33;10.87;;;6.00;99.90;;;;;;5076546;28;20202;-72
2020/12/05 06:24:33;;;;;;;14.87;10.27;;;6.00;99.90;;;;;;5068153;28;20201;-71
2020/12/05 06:27:02;;;;;;;17.57;11.30;;;6.00;99.90;;;;;;5069976;28;20205;-71
2020/12/05 06:29:30;;;;;;;16.73;11.23;;;5.90;99.90;;;;;;5083389;28;20205;-72
2020/12/05 06:31:58;;;;;;;19.00;11.40;;;5.90;99.90;;;;;;5076237;28;20238;-72
2020/12/05 06:34:40;;;;;;;17.53;10.70;;;5.90;99.90;;;;;;5075557;28;20232;-70
2020/12/05 06:37:09;;;;;;;18.03;10.80;;;5.90;99.90;;;;;;5076000;28;20233;-71
2020/12/05 06:39:36;;;;;;;17.43;10.73;;;6.00;99.90;;;;;;5076733;28;20225;-71
2020/12/05 06:42:03;;;;;;;18.73;10.93;;;6.00;99.90;;;;;;5082037;28;20205;-71
2020/12/05 06:44:37;;;;;;;18.60;11.90;;;6.00;99.90;;;;;;5082916;28;20267;-71
2020/12/05 06:47:06;;;;;;;18.63;10.70;;;6.00;99.90;;;;;;5075577;28;20205;-71
2020/12/05 06:49:55;;;;;;;17.40;11.17;;;6.00;99.90;;;;;;5075839;28;20213;-71
2020/12/05 06:52:40;;;;;;;17.83;11.23;;;6.00;99.90;;;;;;5075481;28;20225;-71
2020/12/05 06:55:16;;;;;;;17.80;11.57;;;6.10;99.90;;;;;;5077373;28;20235;-71
2020/12/05 06:57:43;;;;;;;20.30;11.80;;;6.10;99.90;;;;;;5078450;28;20224;-71
2020/12/05 07:00:15;;;;;;;19.83;12.37;;;6.10;99.90;;;;;;5086536;28;20217;-71
2020/12/05 07:02:54;;;;;;;17.50;10.90;;;6.10;99.90;;;;;;5082290;28;20233;-71
2020/12/05 07:05:29;;;;;;;20.43;12.37;;;6.10;99.90;;;;;;5077431;28;20301;-71
2020/12/05 07:07:57;;;;;;;20.10;12.20;;;6.20;99.90;;;;;;5076062;28;20632;-72
2020/12/05 07:10:48;;;;;;;18.23;11.80;;;6.20;99.90;;;;;;5083845;28;20204;-72
2020/12/05 07:13:17;;;;;;;17.83;11.97;;;6.20;99.90;;;;;;5077250;28;20267;-71
2020/12/05 07:15:46;;;;;;;19.50;12.03;;;6.20;99.90;;;;;;5080034;28;20205;-72
2020/12/05 07:18:24;;;;;;;19.03;12.33;;;6.30;99.90;;;;;;5081481;28;20221;-72
2020/12/05 07:20:53;;;;;;;18.23;12.27;;;6.30;99.90;;;;;;5074621;28;20209;-71
2020/12/05 07:23:20;;;;;;;20.53;12.47;;;6.40;99.90;;;;;;5074755;28;20206;-72
2020/12/05 07:25:46;;;;;;;18.57;12.67;;;6.40;99.90;;;;;;5075362;28;20252;-73
2020/12/05 07:28:13;;;;;;;20.73;11.77;;;6.50;99.90;;;;;;5073287;28;20210;-72
2020/12/05 07:30:41;;;;;;;19.07;12.47;;;6.60;99.90;;;;;;5082116;28;20228;-78
2020/12/05 07:33:08;;;;;;;24.60;12.63;;;6.70;99.90;;;;;;5083396;28;20218;-79
2020/12/05 07:35:38;;;;;;;20.30;12.90;;;6.80;99.90;;;;;;5084803;28;20208;-80
2020/12/05 07:38:15;;;;;;;19.90;12.37;;;6.80;99.90;;;;;;5081235;28;20641;-70
2020/12/05 07:40:43;;;;;;;22.87;12.77;;;6.90;99.90;;;;;;5083420;28;20298;-79
2020/12/05 07:43:18;;;;;;;22.10;12.10;;;7.00;99.90;;;;;;5082598;28;20213;-78
2020/12/05 07:45:45;;;;;;;18.40;12.10;;;7.10;99.90;;;;;;5084721;28;20561;-81
2020/12/05 07:48:16;;;;;;;19.83;12.53;;;7.20;99.90;;;;;;5084416;28;20205;-79
2020/12/05 07:50:45;;;;;;;22.23;12.57;;;7.30;99.90;;;;;;5070760;28;20312;-79
2020/12/05 07:53:30;;;;;;;20.70;12.63;;;7.40;99.90;;;;;;5082434;28;20658;-80
2020/12/05 07:55:57;;;;;;;17.43;11.97;;;7.40;99.90;;;;;;5088147;28;20564;-80
2020/12/05 07:58:26;;;;;;;20.13;11.87;;;7.50;99.90;;;;;;5087299;28;20201;-80
2020/12/05 08:00:55;;;;;;;19.13;12.50;;;7.50;99.90;;;;;;5092750;28;20220;-80
2020/12/05 08:03:51;;;;;;;22.00;12.67;;;7.50;99.90;;;;;;5084911;28;20209;-79
2020/12/05 08:06:29;;;;;;;20.97;13.47;;;7.50;99.90;;;;;;5103971;28;20212;-81
2020/12/05 08:09:03;;;;;;;20.20;13.03;;;7.50;99.90;;;;;;5084134;28;20584;-81
2020/12/05 08:11:39;;;;;;;25.30;13.80;;;7.50;99.90;;;;;;5093539;28;20251;-80
2020/12/05 08:14:07;;;;;;;19.00;13.07;;;7.60;99.90;;;;;;5089572;28;20266;-79
2020/12/05 08:16:39;;;;;;;22.30;12.13;;;7.60;99.90;;;;;;5083372;28;20205;-78
2020/12/05 08:19:06;;;;;;;20.00;13.27;;;7.70;99.90;;;;;;5081232;28;20221;-81
2020/12/05 08:21:36;;;;;;;18.50;12.07;;;7.70;99.90;;;;;;5088509;28;20204;-80
2020/12/05 08:24:07;;;;;;;19.50;12.73;;;7.80;99.90;;;;;;5079989;28;20213;-80
2020/12/05 08:26:35;;;;;;;17.17;11.27;;;7.80;99.90;;;;;;5091332;28;20236;-80
2020/12/05 08:29:02;;;;;;;20.77;13.10;;;7.90;99.90;;;;;;5088226;28;20201;-79
2020/12/05 08:31:33;;;;;;;20.63;12.83;;;8.00;99.90;;;;;;5083830;28;20213;-80
2020/12/05 08:33:59;;;;;;;20.90;13.10;;;8.20;99.90;;;;;;5079410;28;20615;-72
2020/12/05 08:36:31;;;;;;;20.80;12.40;;;8.50;99.90;;;;;;5080601;28;20213;-70
2020/12/05 08:39:04;;;;;;;18.47;11.77;;;8.90;99.90;;;;;;5075306;28;20700;-71
2020/12/05 08:41:40;;;;;;;22.73;13.63;;;9.20;99.90;;;;;;5074273;28;20225;-71
2020/12/05 08:44:10;;;;;;;20.43;12.87;;;9.40;99.90;;;;;;5072418;28;20236;-74
2020/12/05 08:46:37;;;;;;;18.97;11.43;;;9.60;99.90;;;;;;5074185;28;20205;-70
2020/12/05 08:49:14;;;;;;;19.43;12.63;;;9.80;99.90;;;;;;5084600;28;20209;-71
2020/12/05 08:51:45;;;;;;;20.37;12.83;;;9.80;99.90;;;;;;5068649;28;20682;-70
2020/12/05 08:54:13;;;;;;;19.80;11.60;;;9.80;99.90;;;;;;5072265;28;20240;-71
2020/12/05 08:56:39;;;;;;;18.73;12.23;;;9.70;99.90;;;;;;5075607;28;20625;-72
2020/12/05 08:59:06;;;;;;;18.67;12.37;;;9.80;99.90;;;;;;5078050;28;20237;-73
2020/12/05 09:01:37;;;;;;;19.93;13.33;;;9.90;99.90;;;;;;5079670;28;20209;-72
2020/12/05 09:04:03;;;;;;;19.03;11.47;;;10.00;99.90;;;;;;5071720;28;20209;-72
2020/12/05 09:06:30;;;;;;;16.63;11.53;;;10.30;99.90;;;;;;5077210;28;20245;-77
2020/12/05 09:08:57;;;;;;;20.10;12.87;;;10.60;99.90;;;;;;5075481;28;20197;-75
2020/12/05 09:11:25;;;;;;;15.60;11.43;;;10.80;99.90;;;;;;5079271;28;20275;-70
2020/12/05 09:13:52;;;;;;;16.63;12.17;;;10.90;99.90;;;;;;5076825;28;20231;-74
2020/12/05 09:16:19;;;;;;;21.23;12.67;;;11.00;99.90;;;;;;5078747;28;20197;-77
2020/12/05 09:18:48;;;;;;;18.40;12.00;;;11.00;99.90;;;;;;5074675;28;20240;-74
2020/12/05 09:21:18;;;;;;;17.33;11.20;;;10.90;99.90;;;;;;5076867;28;20212;-80
2020/12/05 09:23:46;;;;;;;17.30;12.10;;;10.90;99.90;;;;;;5086271;28;20270;-75
2020/12/05 09:26:13;;;;;;;17.47;11.90;;;10.80;99.90;;;;;;5077358;28;20304;-73
2020/12/05 09:28:40;;;;;;;17.50;11.97;;;10.80;99.90;;;;;;5080589;28;20513;-78
2020/12/05 09:31:09;;;;;;;16.90;11.60;;;10.70;99.90;;;;;;5079581;28;20205;-76
2020/12/05 09:33:36;;;;;;;16.43;10.63;;;10.70;99.90;;;;;;5083280;28;20216;-80
2020/12/05 09:36:03;;;;;;;18.20;12.17;;;10.70;99.90;;;;;;5076096;28;20213;-76
2020/12/05 09:38:30;;;;;;;16.43;11.27;;;10.80;99.90;;;;;;5076135;28;20260;-76
2020/12/05 09:40:58;;;;;;;19.60;11.47;;;10.90;99.90;;;;;;5080744;28;20225;-74
2020/12/05 09:43:25;;;;;;;18.47;11.77;;;11.00;99.90;;;;;;5080530;28;20240;-78
2020/12/05 09:45:55;;;;;;;14.97;11.03;;;11.00;99.60;;;;;;5078681;28;20213;-74
2020/12/05 09:48:21;;;;;;;17.73;11.23;;;11.10;99.70;;;;;;5073353;28;20566;-76
2020/12/05 09:50:48;;;;;;;15.00;11.10;;;11.30;99.10;;;;;;5082552;28;20255;-74
2020/12/05 09:53:16;;;;;;;19.33;12.27;;;11.30;98.70;;;;;;5082617;28;20212;-73
2020/12/05 09:55:42;;;;;;;16.60;11.60;;;11.40;98.80;;;;;;5076861;28;20604;-74
2020/12/05 09:58:09;;;;;;;19.13;11.23;;;11.40;98.80;;;;;;5078925;28;20201;-74
2020/12/05 10:00:36;;;;;;;17.10;11.50;;;11.40;98.70;;;;;;5081522;28;20221;-73
2020/12/05 10:03:03;;;;;;;17.40;11.40;;;11.50;98.80;;;;;;5080848;28;20291;-74
2020/12/05 10:05:29;;;;;;;23.30;11.83;;;11.70;98.60;;;;;;5074646;28;20208;-74
2020/12/05 10:07:57;;;;;;;17.67;11.90;;;11.90;97.80;;;;;;5086339;28;20236;-74
2020/12/05 10:10:25;;;;;;;15.40;11.53;;;12.10;97.20;;;;;;5070586;28;20239;-76
2020/12/05 10:12:51;;;;;;;15.50;11.47;;;12.20;97.40;;;;;;5078342;28;20282;-75
2020/12/05 10:15:18;;;;;;;16.90;12.37;;;12.70;97.50;;;;;;5077842;28;20214;-70
2020/12/05 10:17:45;;;;;;;15.60;11.73;;;13.80;98.50;;;;;;5081767;28;20200;-75
2020/12/05 10:20:14;;;;;;;17.43;11.37;;;15.40;94.00;;;;;;5076242;28;20224;-75
2020/12/05 10:22:40;;;;;;;18.20;11.10;;;16.90;88.50;;;;;;5090183;28;20208;-75
2020/12/05 10:25:07;;;;;;;18.13;11.20;;;18.00;78.60;;;;;;5085992;28;20197;-74
2020/12/05 10:27:33;;;;;;;17.20;11.10;;;18.40;70.30;;;;;;5088146;28;20204;-73
2020/12/05 10:30:00;;;;;;;16.73;12.30;;;18.30;67.80;;;;;;5091318;28;20650;-73
2020/12/05 10:32:26;;;;;;;16.23;11.50;;;18.50;68.00;;;;;;5076367;28;20229;-74
2020/12/05 10:34:53;;;;;;;15.93;11.30;;;19.00;64.50;;;;;;5077336;28;20206;-74
2020/12/05 10:37:20;;;;;;;16.87;11.20;;;19.20;62.50;;;;;;5079345;28;20241;-73
2020/12/05 10:39:47;;;;;;;16.85;10.90;;;19.30;61.50;;;;;;5079451;28;20251;-75
2020/12/05 10:42:14;;;;;;;15.37;11.80;;;19.60;61.80;;;;;;5085035;28;20209;-73
2020/12/05 10:44:40;;;;;;;16.77;11.90;;;20.10;57.60;;;;;;5092070;28;20235;-73
2020/12/05 10:47:07;;;;;;;14.52;10.43;;;20.40;56.20;;;;;;5079703;28;20642;-73
2020/12/05 10:49:33;;;;;;;15.52;10.55;;;20.80;55.80;;;;;;5076178;28;20626;-72
2020/12/05 10:52:00;;;;;;;13.52;10.45;;;21.40;58.00;;;;;;5078347;28;20197;-73
2020/12/05 10:54:27;;;;;;;13.55;10.27;;;22.50;52.90;;;;;;5078905;28;20659;-71
2020/12/05 10:56:54;;;;;;;12.13;10.13;;;23.70;50.60;;;;;;5075640;28;20210;-74
2020/12/05 10:59:20;;;;;;;16.83;11.38;;;24.80;47.10;;;;;;5077334;28;20205;-74
2020/12/05 11:01:49;;;;;;;16.20;10.93;;;26.00;45.60;;;;;;5077956;28;20205;-74
2020/12/05 11:04:16;;;;;;;14.45;9.63;;;26.90;42.10;;;;;;5076094;28;20737;-73
2020/12/05 11:06:42;;;;;;;13.05;10.60;;;27.40;40.80;;;;;;5076620;28;20201;-72
2020/12/05 11:09:09;;;;;;;12.73;9.93;;;27.80;39.70;;;;;;5075930;28;20205;-72
2020/12/05 11:11:36;;;;;;;12.75;10.15;;;27.80;39.50;;;;;;5076056;28;20634;-72
2020/12/05 11:14:03;;;;;;;11.95;9.73;;;28.30;38.30;;;;;;5078900;28;20208;-73
2020/12/05 11:16:29;;;;;;;12.82;9.93;;;28.60;37.30;;;;;;5079937;28;20263;-73
2020/12/05 11:18:56;;;;;;;13.07;10.02;;;28.90;37.80;;;;;;5081824;28;20208;-71
2020/12/05 11:21:22;;;;;;;13.13;10.18;;;29.30;36.60;;;;;;5068685;28;20228;-72
2020/12/05 11:23:49;;;;;;;13.32;10.30;;;29.10;36.00;;;;;;5073794;28;20205;-73
2020/12/05 11:26:20;;;;;;;10.82;9.02;;;28.70;36.00;;;;;;5080727;28;20610;-72
2020/12/05 11:28:48;;;;;;;12.65;10.00;;;28.30;36.30;;;;;;5068366;28;20225;-73
2020/12/05 11:31:15;;;;;;;10.55;8.95;;;28.20;36.60;;;;;;5075565;28;20198;-72
2020/12/05 11:33:41;;;;;;;11.57;9.70;;;27.00;35.80;;;;;;5075276;28;20213;-72
2020/12/05 11:36:08;;;;;;;13.93;10.23;;;25.10;38.40;;;;;;5075226;28;20267;-72
2020/12/05 11:38:35;;;;;;;13.50;10.52;;;23.20;40.80;;;;;;5075824;28;20233;-73
2020/12/05 11:41:01;;;;;;;14.63;10.07;;;21.50;43.60;;;;;;5086245;28;20220;-73
2020/12/05 11:43:28;;;;;;;15.75;10.30;;;19.90;45.80;;;;;;5074435;28;20463;-72
2020/12/05 11:45:56;;;;;;;11.63;9.77;;;18.70;48.30;;;;;;5083424;28;20208;-72
2020/12/05 11:48:23;;;;;;;12.65;9.63;;;17.60;50.60;;;;;;5092903;27;20628;-73
2020/12/05 11:50:49;;;;;;;13.63;10.33;;;16.70;52.50;;;;;;5080773;28;20229;-73
2020/12/05 11:53:15;;;;;;;14.60;10.37;;;16.00;54.40;;;;;;5075599;28;20248;-73
2020/12/05 11:55:42;;;;;;;14.27;9.63;;;15.40;56.10;;;;;;5075582;28;20236;-73
2020/12/05 11:58:08;;;;;;;14.03;10.47;;;14.90;57.60;;;;;;5075204;28;20723;-72
2020/12/05 12:00:35;;;;;;;15.53;10.87;;;14.50;58.80;;;;;;5072361;28;20241;-72
2020/12/05 12:03:04;;;;;;;12.93;10.30;;;14.20;60.40;;;;;;5074838;28;20547;-73
2020/12/05 12:05:30;;;;;;;12.33;9.33;;;13.90;61.70;;;;;;5068954;28;20938;-74
2020/12/05 12:07:57;;;;;;;17.67;10.50;;;13.70;63.00;;;;;;5075066;28;20658;-73
2020/12/05 12:10:24;;;;;;;15.40;10.43;;;13.50;64.60;;;;;;5074822;28;20390;-72
2020/12/05 12:12:50;;;;;;;14.30;10.47;;;13.30;66.10;;;;;;5077122;28;20283;-73
2020/12/05 12:15:17;;;;;;;14.93;10.40;;;13.20;67.70;;;;;;5074897;28;20213;-73
2020/12/05 12:17:43;;;;;;;14.30;10.50;;;13.00;68.70;;;;;;5087955;28;20212;-73
2020/12/05 12:20:11;;;;;;;15.27;10.37;;;13.00;70.10;;;;;;5070835;28;20232;-73
2020/12/05 12:22:37;;;;;;;14.23;9.83;;;12.90;71.30;;;;;;5073570;28;20213;-72
2020/12/05 12:25:05;;;;;;;16.17;10.77;;;12.80;72.50;;;;;;5074335;28;20213;-73
2020/12/05 12:27:32;;;;;;;16.00;10.93;;;12.70;74.10;;;;;;5073842;28;20242;-73
2020/12/05 12:29:59;;;;;;;13.90;10.03;;;12.70;76.50;;;;;;5073372;28;20217;-73
2020/12/05 12:32:25;;;;;;;17.23;10.70;;;12.60;76.90;;;;;;5073891;28;20205;-72
2020/12/05 12:34:52;;;;;;;12.03;9.97;;;12.60;78.00;;;;;;5073979;28;20205;-73
2020/12/05 12:37:19;;;;;;;16.80;10.20;;;12.50;79.20;;;;;;5079918;28;20233;-73
2020/12/05 12:39:46;;;;;;;15.30;10.27;;;12.50;80.40;;;;;;5074019;28;20743;-74
2020/12/05 12:42:13;;;;;;;14.33;10.57;;;12.50;81.50;;;;;;5074191;28;20681;-73